Time;durP1;ratioP1;P1;durP2;ratioP2;P2;SDS_P1;SDS_P2;PMS_P1;PMS_P2;Temp;Humidity;BMP_temperature;BMP_pressure;BME280_temperature;BME280_humidity;BME280_pressure;Samples;Min_cycle;Max_cycle;Signal;HPM_P1;HPM_P2
2023/09/20 00:01:22;;;;;;;12.60;12.00;;;;;;;;;;5101746;27;20038;-61
2023/09/20 00:03:48;;;;;;;11.40;10.90;;;;;;;;;;5101213;27;20039;-61
2023/09/20 00:06:16;;;;;;;11.88;11.38;;;;;;;;;;5102175;27;20051;-61
2023/09/20 00:08:42;;;;;;;11.20;10.70;;;;;;;;;;5102483;27;20162;-62
2023/09/20 00:11:08;;;;;;;11.07;10.57;;;;;;;;;;5099742;28;20028;-62
2023/09/20 00:13:34;;;;;;;11.18;10.68;;;;;;;;;;5102175;27;20032;-61
2023/09/20 00:16:00;;;;;;;11.40;10.90;;;;;;;;;;5103160;27;20077;-62
2023/09/20 00:18:25;;;;;;;10.88;10.38;;;;;;;;;;5107655;27;20027;-61
2023/09/20 00:20:51;;;;;;;11.52;11.02;;;;;;;;;;5109747;27;20034;-61
2023/09/20 00:23:20;;;;;;;11.93;11.43;;;;;;;;;;5109610;27;20421;-61
2023/09/20 00:25:46;;;;;;;11.27;10.77;;;;;;;;;;5106364;27;20031;-60
2023/09/20 00:28:12;;;;;;;11.68;11.18;;;;;;;;;;5102640;27;20030;-61
2023/09/20 00:30:37;;;;;;;11.32;10.82;;;;;;;;;;5098218;27;20016;-61
2023/09/20 00:33:03;;;;;;;11.20;10.70;;;;;;;;;;5100474;28;20098;-61
2023/09/20 00:35:28;;;;;;;11.10;10.60;;;;;;;;;;5106488;28;20035;-61
2023/09/20 00:37:54;;;;;;;10.88;10.38;;;;;;;;;;5104279;27;20042;-61
2023/09/20 00:40:20;;;;;;;11.00;10.50;;;;;;;;;;5075460;28;20093;-61
2023/09/20 00:42:46;;;;;;;11.27;10.77;;;;;;;;;;5094837;28;20099;-61
2023/09/20 00:45:15;;;;;;;10.85;10.35;;;;;;;;;;5100796;28;20099;-61
2023/09/20 00:47:45;;;;;;;11.38;10.88;;;;;;;;;;5100605;28;20084;-62
2023/09/20 00:50:11;;;;;;;10.93;10.43;;;;;;;;;;5100571;28;20082;-61
2023/09/20 00:52:44;;;;;;;10.75;10.25;;;;;;;;;;5108814;28;20501;-61
2023/09/20 00:55:13;;;;;;;10.80;10.30;;;;;;;;;;5113139;28;20023;-61
2023/09/20 00:57:38;;;;;;;11.13;10.63;;;;;;;;;;5107718;28;20042;-61
2023/09/20 01:00:11;;;;;;;11.25;10.75;;;;;;;;;;5109183;28;20027;-61
2023/09/20 01:02:38;;;;;;;11.68;11.18;;;;;;;;;;5093706;28;20521;-62
2023/09/20 01:05:04;;;;;;;11.40;10.90;;;;;;;;;;5091601;28;20027;-61
2023/09/20 01:07:30;;;;;;;11.05;10.55;;;;;;;;;;5093484;28;20162;-61
2023/09/20 01:09:56;;;;;;;11.20;10.70;;;;;;;;;;5105611;28;20602;-62
2023/09/20 01:12:21;;;;;;;11.07;10.57;;;;;;;;;;5105623;28;20115;-63
2023/09/20 01:14:47;;;;;;;11.25;10.75;;;;;;;;;;5106748;28;20380;-61
2023/09/20 01:17:14;;;;;;;11.25;10.75;;;;;;;;;;5106784;28;20036;-61
2023/09/20 01:19:40;;;;;;;11.32;10.82;;;;;;;;;;5106513;28;20759;-61
2023/09/20 01:22:05;;;;;;;11.25;10.75;;;;;;;;;;5096128;28;20039;-60
2023/09/20 01:24:32;;;;;;;11.23;10.73;;;;;;;;;;5104104;28;20493;-61
2023/09/20 01:26:59;;;;;;;10.85;10.35;;;;;;;;;;5106917;28;20020;-61
2023/09/20 01:29:24;;;;;;;11.23;10.73;;;;;;;;;;5107449;28;20068;-61
2023/09/20 01:31:49;;;;;;;11.10;10.60;;;;;;;;;;5106539;28;20079;-61
2023/09/20 01:34:15;;;;;;;11.13;10.63;;;;;;;;;;5108720;28;20040;-61
2023/09/20 01:36:40;;;;;;;11.25;10.75;;;;;;;;;;5106111;27;20035;-61
2023/09/20 01:39:08;;;;;;;11.48;10.98;;;;;;;;;;5093848;27;20526;-60
2023/09/20 01:41:34;;;;;;;11.80;11.30;;;;;;;;;;5105750;27;20043;-62
2023/09/20 01:43:59;;;;;;;11.20;10.70;;;;;;;;;;5108787;27;20107;-62
2023/09/20 01:46:25;;;;;;;11.45;10.95;;;;;;;;;;5090994;27;20028;-61
2023/09/20 01:48:51;;;;;;;11.35;10.85;;;;;;;;;;5106013;27;20360;-62
2023/09/20 01:51:19;;;;;;;11.40;10.90;;;;;;;;;;5109858;27;20030;-62
2023/09/20 01:53:45;;;;;;;11.52;11.02;;;;;;;;;;5108388;27;20107;-62
2023/09/20 01:56:10;;;;;;;11.40;10.90;;;;;;;;;;5109317;27;20031;-61
2023/09/20 01:58:36;;;;;;;11.52;11.02;;;;;;;;;;5103217;27;20035;-62
2023/09/20 02:01:02;;;;;;;11.52;11.02;;;;;;;;;;5105753;27;20104;-61
2023/09/20 02:03:31;;;;;;;11.90;11.35;;;;;;;;;;5098722;27;20500;-63
2023/09/20 02:05:58;;;;;;;11.73;11.23;;;;;;;;;;5105256;27;20043;-61
2023/09/20 02:08:25;;;;;;;11.68;11.18;;;;;;;;;;5108316;27;20100;-61
2023/09/20 02:10:51;;;;;;;11.10;10.60;;;;;;;;;;5089084;27;20172;-60
2023/09/20 02:13:18;;;;;;;11.68;11.18;;;;;;;;;;5103656;27;20139;-60
2023/09/20 02:15:44;;;;;;;11.55;11.05;;;;;;;;;;5107638;27;20351;-60
2023/09/20 02:18:10;;;;;;;11.57;11.07;;;;;;;;;;5108612;27;20016;-62
2023/09/20 02:20:36;;;;;;;11.25;10.75;;;;;;;;;;5100313;27;20020;-61
2023/09/20 02:23:03;;;;;;;11.93;11.40;;;;;;;;;;5107296;27;20068;-61
2023/09/20 02:25:29;;;;;;;11.20;10.70;;;;;;;;;;5106112;27;20024;-61
2023/09/20 02:27:57;;;;;;;11.38;10.88;;;;;;;;;;5106907;27;20023;-61
2023/09/20 02:30:28;;;;;;;10.82;10.32;;;;;;;;;;5099137;27;20028;-61
2023/09/20 02:32:54;;;;;;;10.75;10.25;;;;;;;;;;5108431;28;20065;-60
2023/09/20 02:35:20;;;;;;;10.90;10.40;;;;;;;;;;5105228;28;20020;-62
2023/09/20 02:37:46;;;;;;;11.02;10.52;;;;;;;;;;5087197;28;20090;-61
2023/09/20 02:40:14;;;;;;;11.30;10.80;;;;;;;;;;5112113;27;20047;-61
2023/09/20 02:42:40;;;;;;;11.52;11.02;;;;;;;;;;5103574;27;20024;-62
2023/09/20 02:45:07;;;;;;;11.00;10.50;;;;;;;;;;5108120;28;20032;-61
2023/09/20 02:47:32;;;;;;;10.90;10.40;;;;;;;;;;5106444;28;20054;-61
2023/09/20 02:49:57;;;;;;;10.80;10.30;;;;;;;;;;5107031;28;20451;-60
2023/09/20 02:52:23;;;;;;;11.07;10.57;;;;;;;;;;5112024;28;20012;-61
2023/09/20 02:54:49;;;;;;;11.10;10.60;;;;;;;;;;5108210;28;20102;-60
2023/09/20 02:57:15;;;;;;;11.40;10.90;;;;;;;;;;5105506;27;20385;-61
2023/09/20 02:59:40;;;;;;;10.85;10.35;;;;;;;;;;5106217;27;20028;-61
2023/09/20 03:02:06;;;;;;;10.85;10.35;;;;;;;;;;5093406;28;20084;-61
2023/09/20 03:04:32;;;;;;;11.05;10.55;;;;;;;;;;5081521;28;20391;-62
2023/09/20 03:06:57;;;;;;;11.38;10.88;;;;;;;;;;5098191;27;20187;-62
2023/09/20 03:09:26;;;;;;;10.93;10.43;;;;;;;;;;5099711;27;20104;-61
2023/09/20 03:11:51;;;;;;;11.00;10.50;;;;;;;;;;5110327;27;20034;-62
2023/09/20 03:14:17;;;;;;;11.05;10.55;;;;;;;;;;5106444;27;20015;-62
2023/09/20 03:16:43;;;;;;;11.32;10.82;;;;;;;;;;5101580;27;20031;-61
2023/09/20 03:19:09;;;;;;;11.40;10.90;;;;;;;;;;5108779;27;20694;-62
2023/09/20 03:21:35;;;;;;;11.13;10.63;;;;;;;;;;5108346;27;20516;-61
2023/09/20 03:24:05;;;;;;;11.73;11.23;;;;;;;;;;5106997;27;20056;-63
2023/09/20 03:26:32;;;;;;;11.20;10.70;;;;;;;;;;5105082;27;20189;-61
2023/09/20 03:28:57;;;;;;;11.32;10.82;;;;;;;;;;5101098;27;20030;-61
2023/09/20 03:31:23;;;;;;;11.40;10.90;;;;;;;;;;5106437;27;20587;-62
2023/09/20 03:33:48;;;;;;;10.93;10.43;;;;;;;;;;5102716;27;20023;-62
2023/09/20 03:36:15;;;;;;;11.65;11.15;;;;;;;;;;5105877;27;20026;-62
2023/09/20 03:38:41;;;;;;;11.40;10.90;;;;;;;;;;5102717;27;20055;-62
2023/09/20 03:41:07;;;;;;;11.50;11.00;;;;;;;;;;5104618;27;20055;-61
2023/09/20 03:43:32;;;;;;;11.82;11.32;;;;;;;;;;5102375;27;20052;-62
2023/09/20 03:45:58;;;;;;;10.80;10.30;;;;;;;;;;5105313;27;20091;-61
2023/09/20 03:48:23;;;;;;;11.15;10.65;;;;;;;;;;5108553;27;20036;-61
2023/09/20 03:50:49;;;;;;;11.90;11.40;;;;;;;;;;5101261;27;20024;-62
2023/09/20 03:53:15;;;;;;;11.32;10.82;;;;;;;;;;5107994;27;20030;-62
2023/09/20 03:55:40;;;;;;;11.15;10.65;;;;;;;;;;5104911;27;20414;-61
2023/09/20 03:58:06;;;;;;;11.10;10.60;;;;;;;;;;5108528;27;20062;-60
2023/09/20 04:00:32;;;;;;;11.70;11.20;;;;;;;;;;5103202;27;20027;-61
2023/09/20 04:02:58;;;;;;;11.07;10.57;;;;;;;;;;5107252;27;20332;-63
2023/09/20 04:05:24;;;;;;;11.38;10.88;;;;;;;;;;5095486;27;20143;-62
2023/09/20 04:07:49;;;;;;;11.50;11.00;;;;;;;;;;5110214;27;20146;-61
2023/09/20 04:10:16;;;;;;;11.43;10.93;;;;;;;;;;5105822;27;20019;-61
2023/09/20 04:12:41;;;;;;;11.45;10.95;;;;;;;;;;5109400;27;20103;-61
2023/09/20 04:15:10;;;;;;;11.90;11.40;;;;;;;;;;5102067;27;20061;-63
2023/09/20 04:17:36;;;;;;;11.45;10.95;;;;;;;;;;5094652;27;20051;-63
2023/09/20 04:20:05;;;;;;;11.30;10.80;;;;;;;;;;5094496;27;20034;-62
2023/09/20 04:22:31;;;;;;;11.70;11.20;;;;;;;;;;5112864;27;20090;-61
2023/09/20 04:24:56;;;;;;;11.40;10.90;;;;;;;;;;5096012;27;20032;-61
2023/09/20 04:27:22;;;;;;;11.20;10.70;;;;;;;;;;5100402;27;20024;-61
2023/09/20 04:29:47;;;;;;;11.40;10.90;;;;;;;;;;5103569;27;20025;-62
2023/09/20 04:32:12;;;;;;;11.80;11.30;;;;;;;;;;5096463;28;20471;-61
2023/09/20 04:34:38;;;;;;;11.32;10.82;;;;;;;;;;5107653;28;20027;-62
2023/09/20 04:37:05;;;;;;;11.20;10.70;;;;;;;;;;5107610;28;20072;-62
2023/09/20 04:39:30;;;;;;;11.45;10.95;;;;;;;;;;5108917;27;20027;-61
2023/09/20 04:41:55;;;;;;;11.40;10.90;;;;;;;;;;5109156;28;20103;-62
2023/09/20 04:44:21;;;;;;;12.90;12.30;;;;;;;;;;5100519;28;20532;-63
2023/09/20 04:46:47;;;;;;;10.90;10.40;;;;;;;;;;5100623;28;20024;-61
2023/09/20 04:49:13;;;;;;;11.13;10.63;;;;;;;;;;5107881;28;20023;-62
2023/09/20 04:51:39;;;;;;;11.15;10.65;;;;;;;;;;5102711;28;20021;-61
2023/09/20 04:54:07;;;;;;;11.73;11.23;;;;;;;;;;5104591;28;20051;-61
2023/09/20 04:56:32;;;;;;;11.45;10.95;;;;;;;;;;5106399;28;20130;-61
2023/09/20 04:58:57;;;;;;;10.90;10.40;;;;;;;;;;5103875;28;20098;-61
2023/09/20 05:01:23;;;;;;;11.70;11.20;;;;;;;;;;5107133;28;20616;-60
2023/09/20 05:03:50;;;;;;;11.88;11.38;;;;;;;;;;5103838;28;20066;-62
2023/09/20 05:06:16;;;;;;;11.73;11.23;;;;;;;;;;5091595;28;20047;-60
2023/09/20 05:08:42;;;;;;;11.23;10.73;;;;;;;;;;5096868;28;20016;-61
2023/09/20 05:11:10;;;;;;;11.88;11.38;;;;;;;;;;5100578;28;20020;-60
2023/09/20 05:13:36;;;;;;;11.30;10.80;;;;;;;;;;5086100;28;20558;-60
2023/09/20 05:16:03;;;;;;;10.85;10.35;;;;;;;;;;5104830;28;20103;-61
2023/09/20 05:18:29;;;;;;;10.95;10.45;;;;;;;;;;5103447;27;20019;-61
2023/09/20 05:20:54;;;;;;;11.20;10.70;;;;;;;;;;5085531;27;20080;-60
2023/09/20 05:23:19;;;;;;;11.20;10.70;;;;;;;;;;5103142;28;20020;-60
2023/09/20 05:25:45;;;;;;;11.80;11.30;;;;;;;;;;5111250;27;20107;-59
2023/09/20 05:28:11;;;;;;;11.68;11.18;;;;;;;;;;5106643;27;20030;-61
2023/09/20 05:30:36;;;;;;;11.60;11.10;;;;;;;;;;5101500;27;20409;-59
2023/09/20 05:33:04;;;;;;;11.30;10.80;;;;;;;;;;5099511;28;20023;-59
2023/09/20 05:35:30;;;;;;;11.50;11.00;;;;;;;;;;5107350;28;20100;-60
2023/09/20 05:37:55;;;;;;;11.68;11.18;;;;;;;;;;5077644;28;20057;-60
2023/09/20 05:40:21;;;;;;;10.90;10.40;;;;;;;;;;5090533;28;20035;-62
2023/09/20 05:42:47;;;;;;;11.30;10.80;;;;;;;;;;5099976;27;20030;-60
2023/09/20 05:45:13;;;;;;;11.95;11.43;;;;;;;;;;5096188;27;20028;-59
2023/09/20 05:47:40;;;;;;;11.90;11.40;;;;;;;;;;5101244;28;20041;-62
2023/09/20 05:50:06;;;;;;;11.18;10.68;;;;;;;;;;5103515;27;20019;-60
2023/09/20 05:52:32;;;;;;;11.75;11.25;;;;;;;;;;5109542;27;20032;-60
2023/09/20 05:54:57;;;;;;;11.00;10.50;;;;;;;;;;5111390;27;20463;-59
2023/09/20 05:57:23;;;;;;;11.50;11.00;;;;;;;;;;5102710;27;20076;-59
2023/09/20 05:59:48;;;;;;;11.40;10.90;;;;;;;;;;5097019;27;20035;-61
2023/09/20 06:02:13;;;;;;;11.18;10.68;;;;;;;;;;5104602;27;20019;-60
2023/09/20 06:04:39;;;;;;;11.23;10.73;;;;;;;;;;5107771;27;20434;-59
2023/09/20 06:07:04;;;;;;;11.02;10.52;;;;;;;;;;5102532;28;20044;-59
2023/09/20 06:09:31;;;;;;;11.82;11.32;;;;;;;;;;5106432;27;20031;-60
2023/09/20 06:11:56;;;;;;;11.27;10.77;;;;;;;;;;5107359;27;20482;-60
2023/09/20 06:14:22;;;;;;;11.50;11.00;;;;;;;;;;5107927;27;20018;-60
2023/09/20 06:16:48;;;;;;;11.45;10.95;;;;;;;;;;5105953;27;20084;-60
2023/09/20 06:19:14;;;;;;;11.77;11.27;;;;;;;;;;5103925;27;20437;-60
2023/09/20 06:21:39;;;;;;;11.50;11.00;;;;;;;;;;5099173;27;20107;-60
2023/09/20 06:24:10;;;;;;;11.50;11.00;;;;;;;;;;5104264;27;20435;-59
2023/09/20 06:26:37;;;;;;;11.70;11.20;;;;;;;;;;5102259;28;20457;-60
2023/09/20 06:29:02;;;;;;;11.40;10.90;;;;;;;;;;5096718;28;20780;-61
2023/09/20 06:31:28;;;;;;;11.63;11.13;;;;;;;;;;5087595;28;20023;-59
2023/09/20 06:33:53;;;;;;;11.98;11.48;;;;;;;;;;5088255;28;20487;-60
2023/09/20 06:36:22;;;;;;;11.32;10.82;;;;;;;;;;5094932;28;20080;-59
2023/09/20 06:38:48;;;;;;;11.85;11.35;;;;;;;;;;5107855;27;20024;-59
2023/09/20 06:41:13;;;;;;;11.70;11.20;;;;;;;;;;5112161;27;20031;-59
2023/09/20 06:43:39;;;;;;;11.73;11.23;;;;;;;;;;5105015;27;20011;-60
2023/09/20 06:46:06;;;;;;;11.90;11.40;;;;;;;;;;5102480;27;20114;-59
2023/09/20 06:48:31;;;;;;;11.70;11.20;;;;;;;;;;5085956;27;20029;-59
2023/09/20 06:50:57;;;;;;;11.93;11.43;;;;;;;;;;5095428;27;20020;-59
2023/09/20 06:53:23;;;;;;;11.32;10.82;;;;;;;;;;5106383;27;20160;-60
2023/09/20 06:55:49;;;;;;;11.55;11.05;;;;;;;;;;5106619;27;20102;-60
2023/09/20 06:58:14;;;;;;;11.77;11.27;;;;;;;;;;5106114;27;20035;-60
2023/09/20 07:00:40;;;;;;;11.80;11.30;;;;;;;;;;5099412;28;20049;-61
2023/09/20 07:03:05;;;;;;;11.82;11.32;;;;;;;;;;5106142;27;20031;-60
2023/09/20 07:05:30;;;;;;;13.15;12.55;;;;;;;;;;5103992;27;20511;-59
2023/09/20 07:07:59;;;;;;;11.27;10.77;;;;;;;;;;5081773;28;20035;-59
2023/09/20 07:10:25;;;;;;;11.43;10.93;;;;;;;;;;5092476;28;20020;-60
2023/09/20 07:12:50;;;;;;;11.50;11.00;;;;;;;;;;5084031;28;20016;-59
2023/09/20 07:15:16;;;;;;;11.70;11.20;;;;;;;;;;5091079;28;20109;-59
2023/09/20 07:17:45;;;;;;;11.65;11.15;;;;;;;;;;5087736;28;20518;-60
2023/09/20 07:20:20;;;;;;;12.00;11.50;;;;;;;;;;5088126;28;20108;-60
2023/09/20 07:22:47;;;;;;;11.65;11.15;;;;;;;;;;5089913;28;20027;-60
2023/09/20 07:25:17;;;;;;;11.13;10.63;;;;;;;;;;5081610;28;20543;-60
2023/09/20 07:27:42;;;;;;;11.43;10.93;;;;;;;;;;5076156;28;20024;-60
2023/09/20 07:30:14;;;;;;;11.57;11.07;;;;;;;;;;5089744;28;20031;-60
2023/09/20 07:32:39;;;;;;;11.48;10.98;;;;;;;;;;5090555;28;20018;-59
2023/09/20 07:35:19;;;;;;;12.00;11.50;;;;;;;;;;5091588;28;20012;-60
2023/09/20 07:37:48;;;;;;;11.48;10.98;;;;;;;;;;5086525;28;20100;-61
2023/09/20 07:40:13;;;;;;;11.80;11.30;;;;;;;;;;5088846;28;20024;-60
2023/09/20 07:42:39;;;;;;;13.73;13.13;;;;;;;;;;5080418;28;20032;-63
2023/09/20 07:45:08;;;;;;;11.95;11.45;;;;;;;;;;5082525;28;20035;-61
2023/09/20 07:47:35;;;;;;;12.32;11.82;;;;;;;;;;5078698;28;20050;-61
2023/09/20 07:50:00;;;;;;;11.60;11.10;;;;;;;;;;5087818;28;20016;-61
2023/09/20 07:52:25;;;;;;;11.85;11.35;;;;;;;;;;5085289;28;20072;-60
2023/09/20 07:54:51;;;;;;;12.55;11.95;;;;;;;;;;5089354;28;20399;-61
2023/09/20 07:57:16;;;;;;;12.00;11.50;;;;;;;;;;5079091;28;20586;-62
2023/09/20 07:59:42;;;;;;;11.73;11.23;;;;;;;;;;5079675;28;20075;-62
2023/09/20 08:02:09;;;;;;;11.88;11.38;;;;;;;;;;5075569;28;20027;-62
2023/09/20 08:04:37;;;;;;;11.80;11.30;;;;;;;;;;5076323;28;20031;-62
2023/09/20 08:07:03;;;;;;;12.00;11.50;;;;;;;;;;5081994;28;20415;-60
2023/09/20 08:09:29;;;;;;;12.52;11.95;;;;;;;;;;5075413;28;20031;-61
2023/09/20 08:11:54;;;;;;;11.88;11.38;;;;;;;;;;5075967;28;20387;-61
2023/09/20 08:14:20;;;;;;;12.35;11.82;;;;;;;;;;5073936;28;20088;-61
2023/09/20 08:16:45;;;;;;;11.68;11.18;;;;;;;;;;5066864;28;20065;-61
2023/09/20 08:19:21;;;;;;;11.82;11.32;;;;;;;;;;5044828;28;20210;-60
2023/09/20 08:21:46;;;;;;;12.02;11.52;;;;;;;;;;5078475;28;20032;-61
2023/09/20 08:59:54;;;;;;;12.18;11.65;;;;;;;;;;5084950;28;20785;-59
2023/09/20 09:02:21;;;;;;;12.35;11.75;;;;;;;;;;5083580;28;20037;-60
2023/09/20 09:04:49;;;;;;;11.73;11.23;;;;;;;;;;5083504;28;20056;-61
2023/09/20 09:07:17;;;;;;;11.90;11.40;;;;;;;;;;5080085;28;20044;-62
2023/09/20 09:09:42;;;;;;;12.30;11.73;;;;;;;;;;5099156;28;20019;-62
2023/09/20 09:12:08;;;;;;;11.82;11.32;;;;;;;;;;5099880;28;20091;-61
2023/09/20 09:14:36;;;;;;;12.10;11.60;;;;;;;;;;5094062;28;20032;-63
2023/09/20 09:17:02;;;;;;;11.80;11.30;;;;;;;;;;5099038;28;20036;-62
2023/09/20 09:19:28;;;;;;;11.75;11.25;;;;;;;;;;5094726;28;20100;-62
2023/09/20 09:21:54;;;;;;;12.32;11.77;;;;;;;;;;5080009;28;20446;-62
2023/09/20 09:24:21;;;;;;;11.70;11.20;;;;;;;;;;5104023;28;20055;-61
2023/09/20 09:26:46;;;;;;;11.98;11.48;;;;;;;;;;5098824;28;20028;-62
2023/09/20 09:29:18;;;;;;;12.20;11.70;;;;;;;;;;5096736;28;20027;-61
2023/09/20 09:31:50;;;;;;;11.73;11.23;;;;;;;;;;5100052;28;20016;-61
2023/09/20 09:34:19;;;;;;;12.02;11.52;;;;;;;;;;5093107;28;20031;-61
2023/09/20 09:36:45;;;;;;;11.90;11.40;;;;;;;;;;5096609;28;20499;-61
2023/09/20 09:39:14;;;;;;;12.40;11.80;;;;;;;;;;5094406;28;20026;-61
2023/09/20 09:41:43;;;;;;;11.70;11.20;;;;;;;;;;5097107;28;20034;-62
2023/09/20 09:44:08;;;;;;;11.98;11.48;;;;;;;;;;5098459;28;20625;-61
2023/09/20 09:46:40;;;;;;;12.18;11.68;;;;;;;;;;5101674;28;20134;-61
2023/09/20 09:49:12;;;;;;;12.30;11.77;;;;;;;;;;5098352;28;20063;-60
2023/09/20 09:51:52;;;;;;;11.95;11.45;;;;;;;;;;5102019;28;20019;-63
2023/09/20 09:54:19;;;;;;;11.90;11.40;;;;;;;;;;5096705;28;20383;-60
2023/09/20 09:56:45;;;;;;;12.43;11.85;;;;;;;;;;5102258;28;20414;-61
2023/09/20 09:59:10;;;;;;;12.48;11.88;;;;;;;;;;5101591;28;20015;-62
2023/09/20 10:01:40;;;;;;;12.55;11.95;;;;;;;;;;5101853;27;20103;-61
2023/09/20 10:04:10;;;;;;;12.00;11.50;;;;;;;;;;5099183;27;20067;-61
2023/09/20 10:06:39;;;;;;;12.68;12.07;;;;;;;;;;5102241;28;20074;-59
2023/09/20 10:09:10;;;;;;;12.13;11.63;;;;;;;;;;5098457;27;20062;-61
2023/09/20 10:11:37;;;;;;;12.48;11.88;;;;;;;;;;5101495;28;20102;-60
2023/09/20 10:14:07;;;;;;;12.50;11.90;;;;;;;;;;5099490;27;20020;-62
2023/09/20 10:16:32;;;;;;;12.23;11.70;;;;;;;;;;5103407;27;20059;-62
2023/09/20 10:18:58;;;;;;;12.45;11.88;;;;;;;;;;5099175;27;20055;-62
2023/09/20 10:21:26;;;;;;;12.30;11.75;;;;;;;;;;5103678;27;20117;-62
2023/09/20 10:23:59;;;;;;;12.30;11.75;;;;;;;;;;5084387;28;20130;-61
2023/09/20 10:26:26;;;;;;;12.07;11.57;;;;;;;;;;5101863;27;20026;-61
2023/09/20 10:28:52;;;;;;;12.18;11.68;;;;;;;;;;5103440;27;20023;-61
2023/09/20 10:31:18;;;;;;;12.38;11.80;;;;;;;;;;5099383;27;20020;-61
2023/09/20 10:33:55;;;;;;;12.15;11.63;;;;;;;;;;5099802;28;20454;-61
2023/09/20 10:36:23;;;;;;;12.57;11.98;;;;;;;;;;5094629;28;20403;-63
2023/09/20 10:39:09;;;;;;;11.75;11.25;;;;;;;;;;5082511;27;20019;-62
2023/09/20 10:41:39;;;;;;;12.00;11.50;;;;;;;;;;5107100;28;20023;-60
2023/09/20 10:44:05;;;;;;;12.65;12.05;;;;;;;;;;5104165;28;20027;-60
2023/09/20 10:46:34;;;;;;;11.73;11.23;;;;;;;;;;5102871;28;20020;-61
2023/09/20 10:49:00;;;;;;;12.90;12.30;;;;;;;;;;5097546;28;20512;-62
2023/09/20 10:51:42;;;;;;;12.05;11.55;;;;;;;;;;5100101;27;20019;-61
2023/09/20 10:54:19;;;;;;;11.90;11.40;;;;;;;;;;5102449;27;20016;-60
2023/09/20 10:56:53;;;;;;;11.80;11.30;;;;;;;;;;5101976;27;20110;-60
2023/09/20 10:59:25;;;;;;;12.15;11.65;;;;;;;;;;5101511;28;20110;-58
2023/09/20 11:01:56;;;;;;;11.95;11.45;;;;;;;;;;5101394;27;20016;-61
2023/09/20 11:04:22;;;;;;;11.85;11.35;;;;;;;;;;5098532;27;20020;-60
2023/09/20 11:06:47;;;;;;;12.13;11.63;;;;;;;;;;5104529;27;20035;-60
2023/09/20 11:09:13;;;;;;;11.60;11.10;;;;;;;;;;5106017;27;20092;-60
2023/09/20 11:11:39;;;;;;;11.93;11.43;;;;;;;;;;5100948;27;20643;-60
2023/09/20 11:14:04;;;;;;;11.32;10.82;;;;;;;;;;5101391;27;20030;-61
2023/09/20 11:16:30;;;;;;;12.75;12.15;;;;;;;;;;5102086;28;20080;-60
2023/09/20 11:18:56;;;;;;;12.05;11.55;;;;;;;;;;5102278;28;20049;-60
2023/09/20 11:21:23;;;;;;;12.05;11.55;;;;;;;;;;5102648;27;20073;-62
2023/09/20 11:23:49;;;;;;;11.65;11.15;;;;;;;;;;5104911;28;20436;-61
2023/09/20 11:26:25;;;;;;;12.48;11.88;;;;;;;;;;5096074;28;20043;-61
2023/09/20 11:28:52;;;;;;;12.32;11.77;;;;;;;;;;5098812;28;20024;-61
2023/09/20 11:31:26;;;;;;;12.13;11.63;;;;;;;;;;5095547;28;20041;-62
2023/09/20 11:33:52;;;;;;;;;;;;;;;;;;5079920;28;20045;-61
2023/09/20 11:36:19;;;;;;;12.27;11.73;;;;;;;;;;5093202;28;20008;-62
2023/09/20 11:38:44;;;;;;;12.07;11.57;;;;;;;;;;5100350;28;20396;-61
2023/09/20 11:41:09;;;;;;;12.25;11.75;;;;;;;;;;5100609;28;20020;-61
2023/09/20 11:43:38;;;;;;;12.50;11.90;;;;;;;;;;5098914;27;20024;-61
2023/09/20 11:46:09;;;;;;;12.48;11.88;;;;;;;;;;5102012;28;20023;-61
2023/09/20 11:48:36;;;;;;;12.15;11.65;;;;;;;;;;5103902;28;20028;-61
2023/09/20 11:51:02;;;;;;;11.98;11.48;;;;;;;;;;5100213;28;20026;-61
2023/09/20 11:53:29;;;;;;;12.20;11.70;;;;;;;;;;5105070;28;20027;-61
2023/09/20 11:55:55;;;;;;;12.07;11.57;;;;;;;;;;5102065;27;20027;-63
2023/09/20 11:58:20;;;;;;;12.10;11.60;;;;;;;;;;5103508;27;20020;-64
2023/09/20 12:00:46;;;;;;;12.18;11.68;;;;;;;;;;5103003;28;20029;-62
2023/09/20 12:03:12;;;;;;;11.82;11.32;;;;;;;;;;5102999;28;20058;-62
2023/09/20 12:05:38;;;;;;;11.85;11.35;;;;;;;;;;5103851;27;20148;-62
2023/09/20 12:08:06;;;;;;;12.68;12.07;;;;;;;;;;5100715;27;20120;-61
2023/09/20 12:10:31;;;;;;;12.35;11.77;;;;;;;;;;5098418;27;20016;-62
2023/09/20 12:12:57;;;;;;;12.70;12.10;;;;;;;;;;5099146;27;20084;-61
2023/09/20 12:15:24;;;;;;;12.05;11.55;;;;;;;;;;5100349;28;20217;-63
2023/09/20 12:17:55;;;;;;;12.18;11.68;;;;;;;;;;5101465;28;20098;-62
2023/09/20 12:20:20;;;;;;;12.00;11.50;;;;;;;;;;5101047;28;20031;-61
2023/09/20 12:22:46;;;;;;;11.90;11.40;;;;;;;;;;5102179;28;20024;-61
2023/09/20 12:25:19;;;;;;;12.53;11.93;;;;;;;;;;5108728;27;20028;-63
2023/09/20 12:27:46;;;;;;;12.38;11.80;;;;;;;;;;5093451;28;20287;-64
2023/09/20 12:30:12;;;;;;;12.15;11.65;;;;;;;;;;5100762;27;20463;-63
2023/09/20 12:32:39;;;;;;;12.00;11.50;;;;;;;;;;5103836;27;20032;-62
2023/09/20 12:35:05;;;;;;;12.50;11.90;;;;;;;;;;5095680;28;20157;-62
2023/09/20 12:37:31;;;;;;;12.60;12.00;;;;;;;;;;5100228;27;20767;-64
2023/09/20 12:39:56;;;;;;;12.52;11.93;;;;;;;;;;5096737;27;20031;-64
2023/09/20 12:42:23;;;;;;;12.98;12.38;;;;;;;;;;5091654;28;20031;-63
2023/09/20 12:44:50;;;;;;;12.20;11.70;;;;;;;;;;5084596;28;20039;-62
2023/09/20 12:47:16;;;;;;;12.65;12.05;;;;;;;;;;5102849;28;20398;-64
2023/09/20 12:49:42;;;;;;;12.00;11.50;;;;;;;;;;5103569;28;20034;-64
2023/09/20 12:52:07;;;;;;;12.23;11.73;;;;;;;;;;5099093;28;20016;-64
2023/09/20 12:54:32;;;;;;;12.13;11.63;;;;;;;;;;5101570;28;20077;-63
2023/09/20 12:56:58;;;;;;;12.00;11.50;;;;;;;;;;5082155;28;20119;-62
2023/09/20 12:59:27;;;;;;;12.48;11.90;;;;;;;;;;5107071;28;20020;-62
2023/09/20 13:01:55;;;;;;;12.23;11.73;;;;;;;;;;5097763;28;20031;-62
2023/09/20 13:04:20;;;;;;;12.02;11.52;;;;;;;;;;5087731;28;20120;-63
2023/09/20 13:06:46;;;;;;;12.35;11.82;;;;;;;;;;5101420;28;20550;-63
2023/09/20 13:09:14;;;;;;;12.55;11.95;;;;;;;;;;5085978;28;20125;-63
2023/09/20 13:11:40;;;;;;;12.27;11.68;;;;;;;;;;5099448;28;20724;-62
2023/09/20 13:14:05;;;;;;;12.10;11.60;;;;;;;;;;5100557;28;20019;-63
2023/09/20 13:16:30;;;;;;;12.50;11.90;;;;;;;;;;5101387;28;20031;-62
2023/09/20 13:18:56;;;;;;;11.98;11.48;;;;;;;;;;5102564;28;20106;-62
2023/09/20 13:21:22;;;;;;;12.00;11.50;;;;;;;;;;5089081;28;20047;-62
2023/09/20 13:23:47;;;;;;;11.88;11.38;;;;;;;;;;5100740;28;20067;-63
2023/09/20 13:26:15;;;;;;;11.82;11.32;;;;;;;;;;5105142;28;20055;-62
2023/09/20 13:28:41;;;;;;;11.90;11.40;;;;;;;;;;5101604;28;20031;-62
2023/09/20 13:31:07;;;;;;;12.05;11.55;;;;;;;;;;5092578;28;20077;-63
2023/09/20 13:33:32;;;;;;;11.68;11.18;;;;;;;;;;5102363;27;20020;-61
2023/09/20 13:35:57;;;;;;;12.20;11.70;;;;;;;;;;5105042;27;20028;-64
2023/09/20 13:38:23;;;;;;;12.05;11.55;;;;;;;;;;5097374;27;20038;-65
2023/09/20 13:40:49;;;;;;;11.82;11.32;;;;;;;;;;5106884;27;20736;-65
2023/09/20 13:43:14;;;;;;;12.00;11.50;;;;;;;;;;5104309;27;20030;-66
2023/09/20 13:45:43;;;;;;;12.07;11.57;;;;;;;;;;5105808;27;20031;-66
2023/09/20 13:48:11;;;;;;;12.40;11.80;;;;;;;;;;5106395;27;20031;-65
2023/09/20 13:50:38;;;;;;;12.45;11.85;;;;;;;;;;5098170;27;20036;-65
2023/09/20 13:53:05;;;;;;;12.07;11.57;;;;;;;;;;5100331;27;20467;-65
2023/09/20 13:55:30;;;;;;;12.43;11.82;;;;;;;;;;5080298;27;20041;-63
2023/09/20 13:57:56;;;;;;;12.00;11.50;;;;;;;;;;5098262;27;20536;-62
2023/09/20 14:00:21;;;;;;;11.80;11.30;;;;;;;;;;5103347;27;20015;-63
2023/09/20 14:02:47;;;;;;;11.50;11.00;;;;;;;;;;5098760;27;20079;-63
2023/09/20 14:05:15;;;;;;;11.40;10.90;;;;;;;;;;5104450;27;20024;-63
2023/09/20 14:07:44;;;;;;;11.40;10.90;;;;;;;;;;5102267;27;20614;-61
2023/09/20 14:10:10;;;;;;;12.05;11.55;;;;;;;;;;5104440;27;20058;-64
2023/09/20 14:12:37;;;;;;;11.85;11.35;;;;;;;;;;5104499;27;20476;-63
2023/09/20 14:15:03;;;;;;;12.45;11.85;;;;;;;;;;5099791;27;20046;-62
2023/09/20 14:17:30;;;;;;;11.77;11.27;;;;;;;;;;5092068;28;20019;-64
2023/09/20 14:19:56;;;;;;;11.70;11.20;;;;;;;;;;5102271;27;20019;-64
2023/09/20 14:22:21;;;;;;;12.23;11.70;;;;;;;;;;5104882;27;20073;-64
2023/09/20 14:24:46;;;;;;;11.80;11.30;;;;;;;;;;5105628;27;20083;-63
2023/09/20 14:27:12;;;;;;;12.10;11.60;;;;;;;;;;5103286;27;20442;-62
2023/09/20 14:29:37;;;;;;;12.02;11.52;;;;;;;;;;5102310;27;20476;-61
2023/09/20 14:32:03;;;;;;;12.52;11.93;;;;;;;;;;5109071;27;20072;-62
2023/09/20 14:34:29;;;;;;;12.13;11.63;;;;;;;;;;5098871;27;20051;-62
2023/09/20 14:36:55;;;;;;;12.05;11.55;;;;;;;;;;5107267;27;20035;-66
2023/09/20 14:39:20;;;;;;;12.75;12.15;;;;;;;;;;5107664;27;20024;-63
2023/09/20 14:41:46;;;;;;;12.43;11.82;;;;;;;;;;5105290;27;20076;-64
2023/09/20 14:44:11;;;;;;;12.02;11.52;;;;;;;;;;5104334;27;20032;-63
2023/09/20 14:46:37;;;;;;;12.20;11.70;;;;;;;;;;5101770;27;20099;-63
2023/09/20 14:49:03;;;;;;;12.45;11.88;;;;;;;;;;5097553;27;20426;-63
2023/09/20 14:51:28;;;;;;;12.60;12.00;;;;;;;;;;5095790;27;20045;-63